Main page
METAR-TAF:

METAR-TAF

Airports :

Weedon Field

Eufaula, Alabama, United States

latitude: 31-57-05N, longitude: 085-07-44W, elevation: 285 ft

Current weather observation

The report was made 18 minutes ago, at 19:58 UTC
Wind 17 mph from the West/Southwest with gusts up to 32 mph
Temperature 82°F
Humidity 42%
Pressure 29.99 in. Hg
Visibility: 10 miles
Broken clouds at a height of 6000 ft

METAR: KEUF 281958Z AUTO 25015G28KT 10SM BKN060 28/14 A2999 RMK AO2 PK WND 24028/1957 SLP150 I1000 T02780139

Time: 14:16 (20:16 UTC)


TAF: missing

Weather observations and forecasts of more than 4000 airports (METAR and TAF reports).

The available stations are represented by yellow and red dots on the map.

Hover mouse over dot to see the name of the station.

Then click to see weather observations and forecasts.

To change the map : click on the green buttons with a black cross to zoom in, on the green button with a dash to zoom out, or on the green arrows for adjacent maps.


METAR-TAF: